PWSweather.com
Personal Weather Stations
Station Observations
KOHAVON11
Long Road Station, Avon, OH 44011

Long Road StationAvon, OH 44011

Lat: 41.437, Lon: -82.0477

Elevation: 686

Station Type: Davis Vantage Pro2

http://www.avon-weather.com

High Low Average
Temperature 78.9°F26.1°C 41.3°F5.2°C 54.7°F12.6°C
Dew Point 51.7°F10.9°C 36.2°F2.3°C 42.4°F5.8°C
Winds 19.0 mph 30.6 kmh Calm Calm 4.0 mph ESE6.4 kmh ESE
Wind Gusts 27.0 mph43.5 kmh -- 10.0 mph16.1 kmh
Humidity 85% 35% 67%
Pressure 29.86 in1011.2 mb 29.71 in1006.1 mb -
Precipitation 0.00 in0.0 mm - -
Hour Temp Dew Point Humidity Winds Wind Gusts Pressure Precip Precip Rate Daily Precip Total
12:00 AM 62.1°F16.7°C 45.8°F7.7°C 56% 8.0 mph NNE12.9 kmh NNE 10.0 mph16.1 kmh 29.75 in1007.5 mb 0.00 in0.0 mm 0.00 in0.0 mm 0.00 in0.0 mm
12:05 AM 61.2°F16.2°C 44.5°F6.9°C 55% 3.0 mph NE4.8 kmh NE 18.0 mph29.0 kmh 29.76 in1007.8 mb 0.00 in0.0 mm 0.00 in0.0 mm 0.00 in0.0 mm
12:10 AM 59.6°F15.3°C 43.5°F6.4°C 56% 5.0 mph ENE8.0 kmh ENE 18.0 mph29.0 kmh 29.77 in1008.1 mb 0.00 in0.0 mm 0.00 in0.0 mm 0.00 in0.0 mm
12:15 AM 57.7°F14.3°C 42.7°F5.9°C 58% 8.0 mph NE12.9 kmh NE 18.0 mph29.0 kmh 29.77 in1008.1 mb 0.00 in0.0 mm 0.00 in0.0 mm 0.00 in0.0 mm
12:20 AM 56.1°F13.4°C 42.1°F5.6°C 60% 10.0 mph NE16.1 kmh NE 18.0 mph29.0 kmh 29.78 in1008.5 mb 0.00 in0.0 mm 0.00 in0.0 mm 0.00 in0.0 mm
12:25 AM 54.4°F12.4°C 41.4°F5.2°C 62% 8.0 mph ENE12.9 kmh ENE 17.0 mph27.4 kmh 29.79 in1008.8 mb 0.00 in0.0 mm 0.00 in0.0 mm 0.00 in0.0 mm
12:30 AM 53.0°F11.7°C 40.9°F4.9°C 64% 10.0 mph E16.1 kmh E 17.0 mph27.4 kmh 29.79 in1008.8 mb 0.00 in0.0 mm 0.00 in0.0 mm 0.00 in0.0 mm
12:35 AM 51.8°F11.0°C 41.0°F5.0°C 67% 5.0 mph ENE8.0 kmh ENE 15.0 mph24.1 kmh 29.79 in1008.8 mb 0.00 in0.0 mm 0.00 in0.0 mm 0.00 in0.0 mm
12:40 AM 51.0°F10.6°C 40.6°F4.8°C 68% 8.0 mph ENE12.9 kmh ENE 15.0 mph24.1 kmh 29.80 in1009.1 mb 0.00 in0.0 mm 0.00 in0.0 mm 0.00 in0.0 mm
12:45 AM 50.2°F10.1°C 40.2°F4.6°C 69% 5.0 mph E8.0 kmh E 15.0 mph24.1 kmh 29.80 in1009.1 mb 0.00 in0.0 mm 0.00 in0.0 mm 0.00 in0.0 mm
12:50 AM 49.5°F9.7°C 40.0°F4.4°C 70% 7.0 mph ENE11.3 kmh ENE 15.0 mph24.1 kmh 29.79 in1008.8 mb 0.00 in0.0 mm 0.00 in0.0 mm 0.00 in0.0 mm
12:55 AM 48.7°F9.3°C 39.9°F4.4°C 72% 5.0 mph ESE8.0 kmh ESE 15.0 mph24.1 kmh 29.78 in1008.5 mb 0.00 in0.0 mm 0.00 in0.0 mm 0.00 in0.0 mm
01:00 AM 48.0°F8.9°C 40.0°F4.4°C 74% 3.0 mph E4.8 kmh E 15.0 mph24.1 kmh 29.77 in1008.1 mb 0.00 in0.0 mm 0.00 in0.0 mm 0.00 in0.0 mm
01:05 AM 47.7°F8.7°C 40.4°F4.7°C 76% 4.0 mph ENE6.4 kmh ENE 14.0 mph22.5 kmh 29.78 in1008.5 mb 0.00 in0.0 mm 0.00 in0.0 mm 0.00 in0.0 mm
01:10 AM 47.6°F8.7°C 41.0°F5.0°C 78% Calm Calm 14.0 mph22.5 kmh 29.77 in1008.1 mb 0.00 in0.0 mm 0.00 in0.0 mm 0.00 in0.0 mm
01:15 AM 47.5°F8.6°C 41.2°F5.1°C 79% 2.0 mph NE3.2 kmh NE 11.0 mph17.7 kmh 29.77 in1008.1 mb 0.00 in0.0 mm 0.00 in0.0 mm 0.00 in0.0 mm
01:20 AM 47.5°F8.6°C 41.2°F5.1°C 79% 9.0 mph ENE14.5 kmh ENE 11.0 mph17.7 kmh 29.77 in1008.1 mb 0.00 in0.0 mm 0.00 in0.0 mm 0.00 in0.0 mm
01:25 AM 47.5°F8.6°C 41.2°F5.1°C 79% 6.0 mph NE9.7 kmh NE 10.0 mph16.1 kmh 29.77 in1008.1 mb 0.00 in0.0 mm 0.00 in0.0 mm 0.00 in0.0 mm
01:30 AM 47.4°F8.6°C 41.5°F5.3°C 80% 5.0 mph E8.0 kmh E 10.0 mph16.1 kmh 29.77 in1008.1 mb 0.00 in0.0 mm 0.00 in0.0 mm 0.00 in0.0 mm
01:35 AM 47.3°F8.5°C 41.4°F5.2°C 80% 6.0 mph NE9.7 kmh NE 10.0 mph16.1 kmh 29.78 in1008.5 mb 0.00 in0.0 mm 0.00 in0.0 mm 0.00 in0.0 mm
01:40 AM 47.2°F8.4°C 41.3°F5.2°C 80% 5.0 mph NE8.0 kmh NE 12.0 mph19.3 kmh 29.78 in1008.5 mb 0.00 in0.0 mm 0.00 in0.0 mm 0.00 in0.0 mm
01:45 AM 47.1°F8.4°C 41.2°F5.1°C 80% 9.0 mph NE14.5 kmh NE 14.0 mph22.5 kmh 29.79 in1008.8 mb 0.00 in0.0 mm 0.00 in0.0 mm 0.00 in0.0 mm
01:50 AM 46.8°F8.2°C 40.9°F4.9°C 80% 5.0 mph NE8.0 kmh NE 16.0 mph25.7 kmh 29.79 in1008.8 mb 0.00 in0.0 mm 0.00 in0.0 mm 0.00 in0.0 mm
01:55 AM 46.4°F8.0°C 40.5°F4.7°C 80% 8.0 mph NE12.9 kmh NE 16.0 mph25.7 kmh 29.79 in1008.8 mb 0.00 in0.0 mm 0.00 in0.0 mm 0.00 in0.0 mm
02:00 AM 46.1°F7.8°C 40.2°F4.6°C 80% 9.0 mph NE14.5 kmh NE 16.0 mph25.7 kmh 29.79 in1008.8 mb 0.00 in0.0 mm 0.00 in0.0 mm 0.00 in0.0 mm
02:05 AM 45.8°F7.7°C 40.2°F4.6°C 81% 3.0 mph NE4.8 kmh NE 16.0 mph25.7 kmh 29.79 in1008.8 mb 0.00 in0.0 mm 0.00 in0.0 mm 0.00 in0.0 mm
02:10 AM 45.7°F7.6°C 40.1°F4.5°C 81% 6.0 mph NE9.7 kmh NE 15.0 mph24.1 kmh 29.79 in1008.8 mb 0.00 in0.0 mm 0.00 in0.0 mm 0.00 in0.0 mm
02:15 AM 45.5°F7.5°C 40.0°F4.4°C 81% 10.0 mph NE16.1 kmh NE 15.0 mph24.1 kmh 29.79 in1008.8 mb 0.00 in0.0 mm 0.00 in0.0 mm 0.00 in0.0 mm
02:20 AM 45.5°F7.5°C 40.0°F4.4°C 81% 7.0 mph NE11.3 kmh NE 12.0 mph19.3 kmh 29.78 in1008.5 mb 0.00 in0.0 mm 0.00 in0.0 mm 0.00 in0.0 mm
02:25 AM 45.5°F7.5°C 40.0°F4.4°C 81% 7.0 mph ENE11.3 kmh ENE 12.0 mph19.3 kmh 29.78 in1008.5 mb 0.00 in0.0 mm 0.00 in0.0 mm 0.00 in0.0 mm
02:30 AM 45.4°F7.4°C 39.9°F4.4°C 81% 7.0 mph ENE11.3 kmh ENE 11.0 mph17.7 kmh 29.78 in1008.5 mb 0.00 in0.0 mm 0.00 in0.0 mm 0.00 in0.0 mm
02:35 AM 45.4°F7.4°C 39.9°F4.4°C 81% 3.0 mph E4.8 kmh E 11.0 mph17.7 kmh 29.77 in1008.1 mb 0.00 in0.0 mm 0.00 in0.0 mm 0.00 in0.0 mm
02:40 AM 45.3°F7.4°C 39.8°F4.3°C 81% 3.0 mph E4.8 kmh E 9.0 mph14.5 kmh 29.77 in1008.1 mb 0.00 in0.0 mm 0.00 in0.0 mm 0.00 in0.0 mm
02:45 AM 45.3°F7.4°C 39.8°F4.3°C 81% 5.0 mph ENE8.0 kmh ENE 9.0 mph14.5 kmh 29.77 in1008.1 mb 0.00 in0.0 mm 0.00 in0.0 mm 0.00 in0.0 mm
02:50 AM 45.4°F7.4°C 39.9°F4.4°C 81% 5.0 mph NE8.0 kmh NE 9.0 mph14.5 kmh 29.77 in1008.1 mb 0.00 in0.0 mm 0.00 in0.0 mm 0.00 in0.0 mm
02:55 AM 45.4°F7.4°C 39.9°F4.4°C 81% 5.0 mph ENE8.0 kmh ENE 9.0 mph14.5 kmh 29.77 in1008.1 mb 0.00 in0.0 mm 0.00 in0.0 mm 0.00 in0.0 mm
03:00 AM 45.5°F7.5°C 40.0°F4.4°C 81% 3.0 mph NE4.8 kmh NE 8.0 mph12.9 kmh 29.77 in1008.1 mb 0.00 in0.0 mm 0.00 in0.0 mm 0.00 in0.0 mm
03:05 AM 45.5°F7.5°C 39.6°F4.2°C 80% 2.0 mph NE3.2 kmh NE 8.0 mph12.9 kmh 29.77 in1008.1 mb 0.00 in0.0 mm 0.00 in0.0 mm 0.00 in0.0 mm
03:10 AM 45.5°F7.5°C 39.6°F4.2°C 80% Calm Calm 7.0 mph11.3 kmh 29.77 in1008.1 mb 0.00 in0.0 mm 0.00 in0.0 mm 0.00 in0.0 mm
03:15 AM 45.5°F7.5°C 39.6°F4.2°C 80% 5.0 mph NE8.0 kmh NE 5.0 mph8.0 kmh 29.77 in1008.1 mb 0.00 in0.0 mm 0.00 in0.0 mm 0.00 in0.0 mm
03:20 AM 45.5°F7.5°C 39.6°F4.2°C 80% 7.0 mph ENE11.3 kmh ENE 7.0 mph11.3 kmh 29.77 in1008.1 mb 0.00 in0.0 mm 0.00 in0.0 mm 0.00 in0.0 mm
03:25 AM 45.4°F7.4°C 39.5°F4.2°C 80% 3.0 mph E4.8 kmh E 7.0 mph11.3 kmh 29.77 in1008.1 mb 0.00 in0.0 mm 0.00 in0.0 mm 0.00 in0.0 mm
03:30 AM 45.2°F7.3°C 39.7°F4.3°C 81% 1.0 mph E1.6 kmh E 7.0 mph11.3 kmh 29.76 in1007.8 mb 0.00 in0.0 mm 0.00 in0.0 mm 0.00 in0.0 mm
03:35 AM 45.1°F7.3°C 39.6°F4.2°C 81% 4.0 mph E6.4 kmh E 7.0 mph11.3 kmh 29.77 in1008.1 mb 0.00 in0.0 mm 0.00 in0.0 mm 0.00 in0.0 mm
03:40 AM 45.0°F7.2°C 39.5°F4.2°C 81% 4.0 mph E6.4 kmh E 6.0 mph9.7 kmh 29.76 in1007.8 mb 0.00 in0.0 mm 0.00 in0.0 mm 0.00 in0.0 mm
03:45 AM 45.0°F7.2°C 39.5°F4.2°C 81% 3.0 mph ENE4.8 kmh ENE 7.0 mph11.3 kmh 29.77 in1008.1 mb 0.00 in0.0 mm 0.00 in0.0 mm 0.00 in0.0 mm
03:50 AM 44.9°F7.2°C 39.7°F4.3°C 82% 2.0 mph NE3.2 kmh NE 7.0 mph11.3 kmh 29.77 in1008.1 mb 0.00 in0.0 mm 0.00 in0.0 mm 0.00 in0.0 mm
03:55 AM 44.8°F7.1°C 39.6°F4.2°C 82% 1.0 mph NE1.6 kmh NE 7.0 mph11.3 kmh 29.77 in1008.1 mb 0.00 in0.0 mm 0.00 in0.0 mm 0.00 in0.0 mm
04:00 AM 44.8°F7.1°C 39.6°F4.2°C 82% 2.0 mph NE3.2 kmh NE 7.0 mph11.3 kmh 29.77 in1008.1 mb 0.00 in0.0 mm 0.00 in0.0 mm 0.00 in0.0 mm
04:05 AM 44.7°F7.1°C 39.5°F4.2°C 82% 1.0 mph NE1.6 kmh NE 4.0 mph6.4 kmh 29.77 in1008.1 mb 0.00 in0.0 mm 0.00 in0.0 mm 0.00 in0.0 mm
04:10 AM 44.7°F7.1°C 39.5°F4.2°C 82% 1.0 mph NNE1.6 kmh NNE 5.0 mph8.0 kmh 29.77 in1008.1 mb 0.00 in0.0 mm 0.00 in0.0 mm 0.00 in0.0 mm
04:15 AM 44.6°F7.0°C 39.4°F4.1°C 82% 4.0 mph NNE6.4 kmh NNE 5.0 mph8.0 kmh 29.77 in1008.1 mb 0.00 in0.0 mm 0.00 in0.0 mm 0.00 in0.0 mm
04:20 AM 44.5°F6.9°C 39.3°F4.1°C 82% 3.0 mph NE4.8 kmh NE 6.0 mph9.7 kmh 29.78 in1008.5 mb 0.00 in0.0 mm 0.00 in0.0 mm 0.00 in0.0 mm
04:25 AM 44.3°F6.8°C 39.1°F3.9°C 82% 4.0 mph NE6.4 kmh NE 9.0 mph14.5 kmh 29.78 in1008.5 mb 0.00 in0.0 mm 0.00 in0.0 mm 0.00 in0.0 mm
04:30 AM 44.2°F6.8°C 39.0°F3.9°C 82% 4.0 mph NE6.4 kmh NE 9.0 mph14.5 kmh 29.78 in1008.5 mb 0.00 in0.0 mm 0.00 in0.0 mm 0.00 in0.0 mm
04:35 AM 44.0°F6.7°C 39.1°F3.9°C 83% 3.0 mph ENE4.8 kmh ENE 9.0 mph14.5 kmh 29.78 in1008.5 mb 0.00 in0.0 mm 0.00 in0.0 mm 0.00 in0.0 mm
04:40 AM 43.9°F6.6°C 39.0°F3.9°C 83% 2.0 mph ENE3.2 kmh ENE 9.0 mph14.5 kmh 29.78 in1008.5 mb 0.00 in0.0 mm 0.00 in0.0 mm 0.00 in0.0 mm
04:45 AM 43.8°F6.6°C 38.9°F3.8°C 83% 2.0 mph NE3.2 kmh NE 9.0 mph14.5 kmh 29.78 in1008.5 mb 0.00 in0.0 mm 0.00 in0.0 mm 0.00 in0.0 mm
04:50 AM 43.7°F6.5°C 38.8°F3.8°C 83% 3.0 mph NE4.8 kmh NE 9.0 mph14.5 kmh 29.78 in1008.5 mb 0.00 in0.0 mm 0.00 in0.0 mm 0.00 in0.0 mm
04:55 AM 43.6°F6.4°C 38.7°F3.7°C 83% 4.0 mph ENE6.4 kmh ENE 9.0 mph14.5 kmh 29.78 in1008.5 mb 0.00 in0.0 mm 0.00 in0.0 mm 0.00 in0.0 mm
05:00 AM 43.5°F6.4°C 38.6°F3.7°C 83% 2.0 mph ENE3.2 kmh ENE 8.0 mph12.9 kmh 29.78 in1008.5 mb 0.00 in0.0 mm 0.00 in0.0 mm 0.00 in0.0 mm
05:05 AM 43.4°F6.3°C 38.6°F3.7°C 83% 4.0 mph NE6.4 kmh NE 8.0 mph12.9 kmh 29.78 in1008.5 mb 0.00 in0.0 mm 0.00 in0.0 mm 0.00 in0.0 mm
05:10 AM 43.4°F6.3°C 38.9°F3.8°C 84% 2.0 mph NE3.2 kmh NE 7.0 mph11.3 kmh 29.79 in1008.8 mb 0.00 in0.0 mm 0.00 in0.0 mm 0.00 in0.0 mm
05:15 AM 43.4°F6.3°C 38.9°F3.8°C 84% 2.0 mph ENE3.2 kmh ENE 7.0 mph11.3 kmh 29.79 in1008.8 mb 0.00 in0.0 mm 0.00 in0.0 mm 0.00 in0.0 mm
05:20 AM 43.3°F6.3°C 38.8°F3.8°C 84% Calm Calm 4.0 mph6.4 kmh 29.79 in1008.8 mb 0.00 in0.0 mm 0.00 in0.0 mm 0.00 in0.0 mm
05:25 AM 43.2°F6.2°C 38.7°F3.7°C 84% Calm Calm 4.0 mph6.4 kmh 29.79 in1008.8 mb 0.00 in0.0 mm 0.00 in0.0 mm 0.00 in0.0 mm
05:30 AM 43.2°F6.2°C 38.7°F3.7°C 84% Calm Calm 3.0 mph4.8 kmh 29.79 in1008.8 mb 0.00 in0.0 mm 0.00 in0.0 mm 0.00 in0.0 mm
05:35 AM 43.2°F6.2°C 38.7°F3.7°C 84% 1.0 mph NE1.6 kmh NE 3.0 mph4.8 kmh 29.79 in1008.8 mb 0.00 in0.0 mm 0.00 in0.0 mm 0.00 in0.0 mm
05:40 AM 43.1°F6.2°C 38.6°F3.7°C 84% Calm Calm 3.0 mph4.8 kmh 29.79 in1008.8 mb 0.00 in0.0 mm 0.00 in0.0 mm 0.00 in0.0 mm
05:45 AM 43.0°F6.1°C 38.5°F3.6°C 84% Calm Calm 1.0 mph1.6 kmh 29.79 in1008.8 mb 0.00 in0.0 mm 0.00 in0.0 mm 0.00 in0.0 mm
05:50 AM 43.1°F6.2°C 38.9°F3.8°C 85% Calm Calm -- 29.79 in1008.8 mb 0.00 in0.0 mm 0.00 in0.0 mm 0.00 in0.0 mm
05:55 AM 43.0°F6.1°C 38.5°F3.6°C 84% Calm Calm -- 29.79 in1008.8 mb 0.00 in0.0 mm 0.00 in0.0 mm 0.00 in0.0 mm
06:00 AM 43.0°F6.1°C 38.8°F3.8°C 85% Calm Calm -- 29.80 in1009.1 mb 0.00 in0.0 mm 0.00 in0.0 mm 0.00 in0.0 mm
06:05 AM 43.0°F6.1°C 38.8°F3.8°C 85% Calm Calm -- 29.80 in1009.1 mb 0.00 in0.0 mm 0.00 in0.0 mm 0.00 in0.0 mm
06:10 AM 43.0°F6.1°C 38.8°F3.8°C 85% Calm Calm -- 29.80 in1009.1 mb 0.00 in0.0 mm 0.00 in0.0 mm 0.00 in0.0 mm
06:15 AM 43.1°F6.2°C 38.9°F3.8°C 85% Calm Calm -- 29.80 in1009.1 mb 0.00 in0.0 mm 0.00 in0.0 mm 0.00 in0.0 mm
06:20 AM 43.0°F6.1°C 38.8°F3.8°C 85% Calm Calm -- 29.80 in1009.1 mb 0.00 in0.0 mm 0.00 in0.0 mm 0.00 in0.0 mm
06:25 AM 43.0°F6.1°C 38.8°F3.8°C 85% 1.0 mph NE1.6 kmh NE 1.0 mph1.6 kmh 29.80 in1009.1 mb 0.00 in0.0 mm 0.00 in0.0 mm 0.00 in0.0 mm
06:30 AM 43.0°F6.1°C 38.8°F3.8°C 85% 2.0 mph NE3.2 kmh NE 8.0 mph12.9 kmh 29.81 in1009.5 mb 0.00 in0.0 mm 0.00 in0.0 mm 0.00 in0.0 mm
06:35 AM 42.9°F6.1°C 38.7°F3.7°C 85% 4.0 mph NE6.4 kmh NE 8.0 mph12.9 kmh 29.81 in1009.5 mb 0.00 in0.0 mm 0.00 in0.0 mm 0.00 in0.0 mm
06:40 AM 42.8°F6.0°C 38.6°F3.7°C 85% 2.0 mph NE3.2 kmh NE 8.0 mph12.9 kmh 29.81 in1009.5 mb 0.00 in0.0 mm 0.00 in0.0 mm 0.00 in0.0 mm
06:45 AM 42.7°F5.9°C 38.5°F3.6°C 85% 5.0 mph ENE8.0 kmh ENE 8.0 mph12.9 kmh 29.81 in1009.5 mb 0.00 in0.0 mm 0.00 in0.0 mm 0.00 in0.0 mm
06:50 AM 42.7°F5.9°C 38.5°F3.6°C 85% 8.0 mph NE12.9 kmh NE 8.0 mph12.9 kmh 29.81 in1009.5 mb 0.00 in0.0 mm 0.00 in0.0 mm 0.00 in0.0 mm
06:55 AM 42.5°F5.8°C 38.3°F3.5°C 85% 5.0 mph NE8.0 kmh NE 8.0 mph12.9 kmh 29.81 in1009.5 mb 0.00 in0.0 mm 0.00 in0.0 mm 0.00 in0.0 mm
07:00 AM 42.3°F5.7°C 38.1°F3.4°C 85% 7.0 mph ENE11.3 kmh ENE 8.0 mph12.9 kmh 29.81 in1009.5 mb 0.00 in0.0 mm 0.00 in0.0 mm 0.00 in0.0 mm
07:05 AM 42.1°F5.6°C 37.9°F3.3°C 85% 8.0 mph NE12.9 kmh NE 10.0 mph16.1 kmh 29.81 in1009.5 mb 0.00 in0.0 mm 0.00 in0.0 mm 0.00 in0.0 mm
07:10 AM 41.9°F5.5°C 37.7°F3.2°C 85% 3.0 mph NE4.8 kmh NE 10.0 mph16.1 kmh 29.81 in1009.5 mb 0.00 in0.0 mm 0.00 in0.0 mm 0.00 in0.0 mm
07:15 AM 41.8°F5.4°C 37.6°F3.1°C 85% 4.0 mph ENE6.4 kmh ENE 10.0 mph16.1 kmh 29.81 in1009.5 mb 0.00 in0.0 mm 0.00 in0.0 mm 0.00 in0.0 mm
07:20 AM 41.7°F5.4°C 37.5°F3.1°C 85% 5.0 mph ENE8.0 kmh ENE 10.0 mph16.1 kmh 29.82 in1009.8 mb 0.00 in0.0 mm 0.00 in0.0 mm 0.00 in0.0 mm
07:25 AM 41.6°F5.3°C 37.4°F3.0°C 85% 5.0 mph ENE8.0 kmh ENE 11.0 mph17.7 kmh 29.82 in1009.8 mb 0.00 in0.0 mm 0.00 in0.0 mm 0.00 in0.0 mm
07:30 AM 41.5°F5.3°C 37.3°F2.9°C 85% 7.0 mph ENE11.3 kmh ENE 11.0 mph17.7 kmh 29.82 in1009.8 mb 0.00 in0.0 mm 0.00 in0.0 mm 0.00 in0.0 mm
07:35 AM 41.4°F5.2°C 37.2°F2.9°C 85% 5.0 mph NE8.0 kmh NE 11.0 mph17.7 kmh 29.82 in1009.8 mb 0.00 in0.0 mm 0.00 in0.0 mm 0.00 in0.0 mm
07:40 AM 41.4°F5.2°C 37.2°F2.9°C 85% 5.0 mph ENE8.0 kmh ENE 11.0 mph17.7 kmh 29.82 in1009.8 mb 0.00 in0.0 mm 0.00 in0.0 mm 0.00 in0.0 mm
07:45 AM 41.4°F5.2°C 37.2°F2.9°C 85% 3.0 mph ENE4.8 kmh ENE 9.0 mph14.5 kmh 29.82 in1009.8 mb 0.00 in0.0 mm 0.00 in0.0 mm 0.00 in0.0 mm
07:50 AM 41.6°F5.3°C 37.4°F3.0°C 85% 5.0 mph E8.0 kmh E 9.0 mph14.5 kmh 29.83 in1010.2 mb 0.00 in0.0 mm 0.00 in0.0 mm 0.00 in0.0 mm
07:55 AM 42.0°F5.6°C 37.8°F3.2°C 85% 2.0 mph ENE3.2 kmh ENE 7.0 mph11.3 kmh 29.83 in1010.2 mb 0.00 in0.0 mm 0.00 in0.0 mm 0.00 in0.0 mm
08:00 AM 42.4°F5.8°C 38.2°F3.4°C 85% 2.0 mph ENE3.2 kmh ENE 7.0 mph11.3 kmh 29.83 in1010.2 mb 0.00 in0.0 mm 0.00 in0.0 mm 0.00 in0.0 mm
08:05 AM 42.8°F6.0°C 38.6°F3.7°C 85% 4.0 mph E6.4 kmh E 7.0 mph11.3 kmh 29.83 in1010.2 mb 0.00 in0.0 mm 0.00 in0.0 mm 0.00 in0.0 mm
08:10 AM 43.0°F6.1°C 38.8°F3.8°C 85% 2.0 mph ENE3.2 kmh ENE 7.0 mph11.3 kmh 29.83 in1010.2 mb 0.00 in0.0 mm 0.00 in0.0 mm 0.00 in0.0 mm
08:15 AM 43.5°F6.4°C 39.0°F3.9°C 84% Calm Calm 7.0 mph11.3 kmh 29.83 in1010.2 mb 0.00 in0.0 mm 0.00 in0.0 mm 0.00 in0.0 mm
08:20 AM 43.6°F6.4°C 39.1°F3.9°C 84% 1.0 mph NE1.6 kmh NE 7.0 mph11.3 kmh 29.83 in1010.2 mb 0.00 in0.0 mm 0.00 in0.0 mm 0.00 in0.0 mm
08:25 AM 43.9°F6.6°C 39.4°F4.1°C 84% 2.0 mph NE3.2 kmh NE 4.0 mph6.4 kmh 29.83 in1010.2 mb 0.00 in0.0 mm 0.00 in0.0 mm 0.00 in0.0 mm
08:30 AM 43.9°F6.6°C 39.0°F3.9°C 83% 1.0 mph ENE1.6 kmh ENE 4.0 mph6.4 kmh 29.83 in1010.2 mb 0.00 in0.0 mm 0.00 in0.0 mm 0.00 in0.0 mm
08:35 AM 43.9°F6.6°C 39.0°F3.9°C 83% 2.0 mph ENE3.2 kmh ENE 4.0 mph6.4 kmh 29.83 in1010.2 mb 0.00 in0.0 mm 0.00 in0.0 mm 0.00 in0.0 mm
08:40 AM 44.0°F6.7°C 39.1°F3.9°C 83% 3.0 mph E4.8 kmh E 5.0 mph8.0 kmh 29.82 in1009.8 mb 0.00 in0.0 mm 0.00 in0.0 mm 0.00 in0.0 mm
08:45 AM 44.0°F6.7°C 39.1°F3.9°C 83% Calm Calm 5.0 mph8.0 kmh 29.83 in1010.2 mb 0.00 in0.0 mm 0.00 in0.0 mm 0.00 in0.0 mm
08:50 AM 44.7°F7.1°C 40.1°F4.5°C 84% Calm Calm -- 29.83 in1010.2 mb 0.00 in0.0 mm 0.00 in0.0 mm 0.00 in0.0 mm
08:55 AM 45.3°F7.4°C 40.1°F4.5°C 82% Calm Calm -- 29.83 in1010.2 mb 0.00 in0.0 mm 0.00 in0.0 mm 0.00 in0.0 mm
09:00 AM 46.0°F7.8°C 40.8°F4.9°C 82% Calm Calm -- 29.83 in1010.2 mb 0.00 in0.0 mm 0.00 in0.0 mm 0.00 in0.0 mm
09:05 AM 46.0°F7.8°C 40.1°F4.5°C 80% Calm Calm -- 29.83 in1010.2 mb 0.00 in0.0 mm 0.00 in0.0 mm 0.00 in0.0 mm
09:10 AM 46.1°F7.8°C 40.2°F4.6°C 80% Calm Calm -- 29.83 in1010.2 mb 0.00 in0.0 mm 0.00 in0.0 mm 0.00 in0.0 mm
09:15 AM 46.2°F7.9°C 40.3°F4.6°C 80% Calm Calm -- 29.83 in1010.2 mb 0.00 in0.0 mm 0.00 in0.0 mm 0.00 in0.0 mm
09:20 AM 46.3°F7.9°C 40.4°F4.7°C 80% Calm Calm -- 29.83 in1010.2 mb 0.00 in0.0 mm 0.00 in0.0 mm 0.00 in0.0 mm
09:25 AM 46.5°F8.1°C 40.6°F4.8°C 80% Calm Calm -- 29.83 in1010.2 mb 0.00 in0.0 mm 0.00 in0.0 mm 0.00 in0.0 mm
09:30 AM 47.4°F8.6°C 41.5°F5.3°C 80% Calm Calm -- 29.82 in1009.8 mb 0.00 in0.0 mm 0.00 in0.0 mm 0.00 in0.0 mm
09:35 AM 48.1°F8.9°C 41.5°F5.3°C 78% Calm Calm -- 29.82 in1009.8 mb 0.00 in0.0 mm 0.00 in0.0 mm 0.00 in0.0 mm
09:40 AM 48.6°F9.2°C 41.6°F5.3°C 77% Calm Calm -- 29.82 in1009.8 mb 0.00 in0.0 mm 0.00 in0.0 mm 0.00 in0.0 mm
09:45 AM 49.3°F9.6°C 41.6°F5.3°C 75% Calm Calm -- 29.82 in1009.8 mb 0.00 in0.0 mm 0.00 in0.0 mm 0.00 in0.0 mm
09:50 AM 49.9°F9.9°C 41.8°F5.4°C 74% Calm Calm -- 29.82 in1009.8 mb 0.00 in0.0 mm 0.00 in0.0 mm 0.00 in0.0 mm
09:55 AM 50.3°F10.2°C 41.8°F5.4°C 73% Calm Calm -- 29.82 in1009.8 mb 0.00 in0.0 mm 0.00 in0.0 mm 0.00 in0.0 mm
10:00 AM 51.1°F10.6°C 42.6°F5.9°C 73% Calm Calm -- 29.82 in1009.8 mb 0.00 in0.0 mm 0.00 in0.0 mm 0.00 in0.0 mm
10:05 AM 52.6°F11.4°C 44.0°F6.7°C 73% Calm Calm -- 29.81 in1009.5 mb 0.00 in0.0 mm 0.00 in0.0 mm 0.00 in0.0 mm
10:10 AM 53.8°F12.1°C 44.1°F6.7°C 70% Calm Calm -- 29.81 in1009.5 mb 0.00 in0.0 mm 0.00 in0.0 mm 0.00 in0.0 mm
10:15 AM 54.5°F12.5°C 44.3°F6.8°C 69% Calm Calm -- 29.81 in1009.5 mb 0.00 in0.0 mm 0.00 in0.0 mm 0.00 in0.0 mm
10:20 AM 55.9°F13.3°C 44.9°F7.2°C 67% Calm Calm -- 29.81 in1009.5 mb 0.00 in0.0 mm 0.00 in0.0 mm 0.00 in0.0 mm
10:25 AM 57.9°F14.4°C 46.4°F8.0°C 66% 2.0 mph S3.2 kmh S 5.0 mph8.0 kmh 29.80 in1009.1 mb 0.00 in0.0 mm 0.00 in0.0 mm 0.00 in0.0 mm
10:30 AM 60.3°F15.7°C 46.9°F8.3°C 62% 2.0 mph SSW3.2 kmh SSW 7.0 mph11.3 kmh 29.80 in1009.1 mb 0.00 in0.0 mm 0.00 in0.0 mm 0.00 in0.0 mm
10:35 AM 61.1°F16.2°C 46.3°F7.9°C 59% 3.0 mph SSW4.8 kmh SSW 7.0 mph11.3 kmh 29.80 in1009.1 mb 0.00 in0.0 mm 0.00 in0.0 mm 0.00 in0.0 mm
10:40 AM 61.9°F16.6°C 47.1°F8.4°C 59% Calm Calm 7.0 mph11.3 kmh 29.80 in1009.1 mb 0.00 in0.0 mm 0.00 in0.0 mm 0.00 in0.0 mm
10:45 AM 63.4°F17.4°C 48.0°F8.9°C 58% Calm Calm 7.0 mph11.3 kmh 29.80 in1009.1 mb 0.00 in0.0 mm 0.00 in0.0 mm 0.00 in0.0 mm
10:50 AM 65.6°F18.7°C 49.5°F9.7°C 57% 2.0 mph SW3.2 kmh SW 7.0 mph11.3 kmh 29.80 in1009.1 mb 0.00 in0.0 mm 0.00 in0.0 mm 0.00 in0.0 mm
10:55 AM 67.2°F19.6°C 49.5°F9.7°C 54% Calm Calm 11.0 mph17.7 kmh 29.80 in1009.1 mb 0.00 in0.0 mm 0.00 in0.0 mm 0.00 in0.0 mm
11:00 AM 68.5°F20.3°C 50.2°F10.1°C 53% 6.0 mph SSW9.7 kmh SSW 11.0 mph17.7 kmh 29.79 in1008.8 mb 0.00 in0.0 mm 0.00 in0.0 mm 0.00 in0.0 mm
11:05 AM 69.6°F20.9°C 49.0°F9.4°C 49% 4.0 mph S6.4 kmh S 11.0 mph17.7 kmh 29.79 in1008.8 mb 0.00 in0.0 mm 0.00 in0.0 mm 0.00 in0.0 mm
11:10 AM 70.5°F21.4°C 50.4°F10.2°C 50% 5.0 mph SW8.0 kmh SW 14.0 mph22.5 kmh 29.79 in1008.8 mb 0.00 in0.0 mm 0.00 in0.0 mm 0.00 in0.0 mm
11:15 AM 71.7°F22.1°C 50.3°F10.2°C 48% 3.0 mph SSW4.8 kmh SSW 14.0 mph22.5 kmh 29.79 in1008.8 mb 0.00 in0.0 mm 0.00 in0.0 mm 0.00 in0.0 mm
11:20 AM 72.4°F22.4°C 49.8°F9.9°C 46% 11.0 mph SW17.7 kmh SW 18.0 mph29.0 kmh 29.79 in1008.8 mb 0.00 in0.0 mm 0.00 in0.0 mm 0.00 in0.0 mm
11:25 AM 73.1°F22.8°C 50.4°F10.2°C 46% 5.0 mph S8.0 kmh S 18.0 mph29.0 kmh 29.78 in1008.5 mb 0.00 in0.0 mm 0.00 in0.0 mm 0.00 in0.0 mm
11:30 AM 73.5°F23.1°C 50.2°F10.1°C 45% 12.0 mph SSW19.3 kmh SSW 18.0 mph29.0 kmh 29.78 in1008.5 mb 0.00 in0.0 mm 0.00 in0.0 mm 0.00 in0.0 mm
11:35 AM 73.4°F23.0°C 50.7°F10.4°C 46% 7.0 mph SW11.3 kmh SW 18.0 mph29.0 kmh 29.78 in1008.5 mb 0.00 in0.0 mm 0.00 in0.0 mm 0.00 in0.0 mm
11:40 AM 73.5°F23.1°C 50.2°F10.1°C 45% 7.0 mph WSW11.3 kmh WSW 15.0 mph24.1 kmh 29.78 in1008.5 mb 0.00 in0.0 mm 0.00 in0.0 mm 0.00 in0.0 mm
11:45 AM 73.4°F23.0°C 50.1°F10.1°C 45% 5.0 mph SSW8.0 kmh SSW 15.0 mph24.1 kmh 29.78 in1008.5 mb 0.00 in0.0 mm 0.00 in0.0 mm 0.00 in0.0 mm
11:50 AM 73.6°F23.1°C 50.2°F10.1°C 45% 5.0 mph SW8.0 kmh SW 19.0 mph30.6 kmh 29.77 in1008.1 mb 0.00 in0.0 mm 0.00 in0.0 mm 0.00 in0.0 mm
11:55 AM 73.2°F22.9°C 50.5°F10.3°C 46% 8.0 mph SW12.9 kmh SW 19.0 mph30.6 kmh 29.77 in1008.1 mb 0.00 in0.0 mm 0.00 in0.0 mm 0.00 in0.0 mm
12:00 PM 73.0°F22.8°C 50.3°F10.2°C 46% 5.0 mph SSW8.0 kmh SSW 19.0 mph30.6 kmh 29.77 in1008.1 mb 0.00 in0.0 mm 0.00 in0.0 mm 0.00 in0.0 mm
12:05 PM 72.9°F22.7°C 49.6°F9.8°C 45% 6.0 mph SSW9.7 kmh SSW 19.0 mph30.6 kmh 29.77 in1008.1 mb 0.00 in0.0 mm 0.00 in0.0 mm 0.00 in0.0 mm
12:10 PM 72.8°F22.7°C 49.5°F9.7°C 45% 8.0 mph SW12.9 kmh SW 16.0 mph25.7 kmh 29.78 in1008.5 mb 0.00 in0.0 mm 0.00 in0.0 mm 0.00 in0.0 mm
12:15 PM 72.5°F22.5°C 49.9°F9.9°C 46% 5.0 mph WSW8.0 kmh WSW 16.0 mph25.7 kmh 29.78 in1008.5 mb 0.00 in0.0 mm 0.00 in0.0 mm 0.00 in0.0 mm
12:20 PM 72.2°F22.3°C 49.6°F9.8°C 46% 4.0 mph SW6.4 kmh SW 16.0 mph25.7 kmh 29.78 in1008.5 mb 0.00 in0.0 mm 0.00 in0.0 mm 0.00 in0.0 mm
12:25 PM 71.8°F22.1°C 49.2°F9.6°C 46% 6.0 mph SW9.7 kmh SW 17.0 mph27.4 kmh 29.77 in1008.1 mb 0.00 in0.0 mm 0.00 in0.0 mm 0.00 in0.0 mm
12:30 PM 71.8°F22.1°C 49.2°F9.6°C 46% 9.0 mph SW14.5 kmh SW 17.0 mph27.4 kmh 29.77 in1008.1 mb 0.00 in0.0 mm 0.00 in0.0 mm 0.00 in0.0 mm
12:35 PM 72.1°F22.3°C 49.5°F9.7°C 46% 13.0 mph S20.9 kmh S 17.0 mph27.4 kmh 29.77 in1008.1 mb 0.00 in0.0 mm 0.00 in0.0 mm 0.00 in0.0 mm
12:40 PM 72.8°F22.7°C 49.5°F9.7°C 45% 6.0 mph SW9.7 kmh SW 18.0 mph29.0 kmh 29.77 in1008.1 mb 0.00 in0.0 mm 0.00 in0.0 mm 0.00 in0.0 mm
12:45 PM 73.1°F22.8°C 49.2°F9.6°C 44% 8.0 mph S12.9 kmh S 23.0 mph37.0 kmh 29.76 in1007.8 mb 0.00 in0.0 mm 0.00 in0.0 mm 0.00 in0.0 mm
12:50 PM 73.2°F22.9°C 49.9°F9.9°C 45% 5.0 mph SW8.0 kmh SW 23.0 mph37.0 kmh 29.76 in1007.8 mb 0.00 in0.0 mm 0.00 in0.0 mm 0.00 in0.0 mm
12:55 PM 74.0°F23.3°C 51.2°F10.7°C 46% 6.0 mph SSW9.7 kmh SSW 23.0 mph37.0 kmh 29.76 in1007.8 mb 0.00 in0.0 mm 0.00 in0.0 mm 0.00 in0.0 mm
01:00 PM 74.4°F23.6°C 50.3°F10.2°C 44% 17.0 mph SSW27.4 kmh SSW 23.0 mph37.0 kmh 29.75 in1007.5 mb 0.00 in0.0 mm 0.00 in0.0 mm 0.00 in0.0 mm
01:05 PM 74.3°F23.5°C 49.6°F9.8°C 43% 13.0 mph S20.9 kmh S 21.0 mph33.8 kmh 29.75 in1007.5 mb 0.00 in0.0 mm 0.00 in0.0 mm 0.00 in0.0 mm
01:10 PM 74.6°F23.7°C 50.5°F10.3°C 44% 5.0 mph SW8.0 kmh SW 21.0 mph33.8 kmh 29.75 in1007.5 mb 0.00 in0.0 mm 0.00 in0.0 mm 0.00 in0.0 mm
01:15 PM 75.2°F24.0°C 51.7°F10.9°C 45% 5.0 mph SW8.0 kmh SW 20.0 mph32.2 kmh 29.75 in1007.5 mb 0.00 in0.0 mm 0.00 in0.0 mm 0.00 in0.0 mm
01:20 PM 76.0°F24.4°C 51.1°F10.6°C 43% 10.0 mph WSW16.1 kmh WSW 20.0 mph32.2 kmh 29.74 in1007.1 mb 0.00 in0.0 mm 0.00 in0.0 mm 0.00 in0.0 mm
01:25 PM 75.9°F24.4°C 51.0°F10.6°C 43% 7.0 mph SSW11.3 kmh SSW 18.0 mph29.0 kmh 29.74 in1007.1 mb 0.00 in0.0 mm 0.00 in0.0 mm 0.00 in0.0 mm
01:30 PM 75.4°F24.1°C 49.9°F9.9°C 42% 5.0 mph SW8.0 kmh SW 22.0 mph35.4 kmh 29.74 in1007.1 mb 0.00 in0.0 mm 0.00 in0.0 mm 0.00 in0.0 mm
01:35 PM 75.5°F24.2°C 50.0°F10.0°C 42% 7.0 mph SW11.3 kmh SW 22.0 mph35.4 kmh 29.74 in1007.1 mb 0.00 in0.0 mm 0.00 in0.0 mm 0.00 in0.0 mm
01:40 PM 75.7°F24.3°C 50.2°F10.1°C 42% 5.0 mph SW8.0 kmh SW 22.0 mph35.4 kmh 29.74 in1007.1 mb 0.00 in0.0 mm 0.00 in0.0 mm 0.00 in0.0 mm
01:45 PM 76.1°F24.5°C 50.5°F10.3°C 42% 6.0 mph SSW9.7 kmh SSW 22.0 mph35.4 kmh 29.74 in1007.1 mb 0.00 in0.0 mm 0.00 in0.0 mm 0.00 in0.0 mm
01:50 PM 76.3°F24.6°C 50.7°F10.4°C 42% 5.0 mph SSW8.0 kmh SSW 17.0 mph27.4 kmh 29.73 in1006.8 mb 0.00 in0.0 mm 0.00 in0.0 mm 0.00 in0.0 mm
01:55 PM 76.4°F24.7°C 50.1°F10.1°C 41% 15.0 mph S24.1 kmh S 23.0 mph37.0 kmh 29.73 in1006.8 mb 0.00 in0.0 mm 0.00 in0.0 mm 0.00 in0.0 mm
02:00 PM 75.8°F24.3°C 50.3°F10.2°C 42% 14.0 mph SW22.5 kmh SW 26.0 mph41.8 kmh 29.73 in1006.8 mb 0.00 in0.0 mm 0.00 in0.0 mm 0.00 in0.0 mm
02:05 PM 75.6°F24.2°C 50.1°F10.1°C 42% 7.0 mph SW11.3 kmh SW 26.0 mph41.8 kmh 29.73 in1006.8 mb 0.00 in0.0 mm 0.00 in0.0 mm 0.00 in0.0 mm
02:10 PM 76.0°F24.4°C 50.5°F10.3°C 42% 12.0 mph S19.3 kmh S 26.0 mph41.8 kmh 29.74 in1007.1 mb 0.00 in0.0 mm 0.00 in0.0 mm 0.00 in0.0 mm
02:15 PM 75.9°F24.4°C 49.0°F9.4°C 40% 7.0 mph SW11.3 kmh SW 26.0 mph41.8 kmh 29.74 in1007.1 mb 0.00 in0.0 mm 0.00 in0.0 mm 0.00 in0.0 mm
02:20 PM 75.8°F24.3°C 49.6°F9.8°C 41% 5.0 mph SW8.0 kmh SW 21.0 mph33.8 kmh 29.74 in1007.1 mb 0.00 in0.0 mm 0.00 in0.0 mm 0.00 in0.0 mm
02:25 PM 75.9°F24.4°C 49.0°F9.4°C 40% 5.0 mph SW8.0 kmh SW 21.0 mph33.8 kmh 29.74 in1007.1 mb 0.00 in0.0 mm 0.00 in0.0 mm 0.00 in0.0 mm
02:30 PM 76.5°F24.7°C 50.2°F10.1°C 41% 10.0 mph SW16.1 kmh SW 21.0 mph33.8 kmh 29.73 in1006.8 mb 0.00 in0.0 mm 0.00 in0.0 mm 0.00 in0.0 mm
02:35 PM 76.5°F24.7°C 49.5°F9.7°C 40% 7.0 mph S11.3 kmh S 21.0 mph33.8 kmh 29.73 in1006.8 mb 0.00 in0.0 mm 0.00 in0.0 mm 0.00 in0.0 mm
02:40 PM 76.5°F24.7°C 49.5°F9.7°C 40% 7.0 mph SW11.3 kmh SW 15.0 mph24.1 kmh 29.73 in1006.8 mb 0.00 in0.0 mm 0.00 in0.0 mm 0.00 in0.0 mm
02:45 PM 76.9°F24.9°C 49.2°F9.6°C 39% 13.0 mph SSW20.9 kmh SSW 21.0 mph33.8 kmh 29.73 in1006.8 mb 0.00 in0.0 mm 0.00 in0.0 mm 0.00 in0.0 mm
02:50 PM 76.6°F24.8°C 47.4°F8.6°C 37% 9.0 mph SW14.5 kmh SW 21.0 mph33.8 kmh 29.73 in1006.8 mb 0.00 in0.0 mm 0.00 in0.0 mm 0.00 in0.0 mm
02:55 PM 76.5°F24.7°C 48.1°F8.9°C 38% 6.0 mph SW9.7 kmh SW 21.0 mph33.8 kmh 29.73 in1006.8 mb 0.00 in0.0 mm 0.00 in0.0 mm 0.00 in0.0 mm
03:00 PM 76.8°F24.9°C 48.3°F9.1°C 38% 6.0 mph SW9.7 kmh SW 21.0 mph33.8 kmh 29.73 in1006.8 mb 0.00 in0.0 mm 0.00 in0.0 mm 0.00 in0.0 mm
03:05 PM 77.5°F25.3°C 48.2°F9.0°C 37% 9.0 mph SW14.5 kmh SW 23.0 mph37.0 kmh 29.73 in1006.8 mb 0.00 in0.0 mm 0.00 in0.0 mm 0.00 in0.0 mm
03:10 PM 77.1°F25.1°C 47.8°F8.8°C 37% 11.0 mph SW17.7 kmh SW 23.0 mph37.0 kmh 29.73 in1006.8 mb 0.00 in0.0 mm 0.00 in0.0 mm 0.00 in0.0 mm
03:15 PM 76.9°F24.9°C 47.7°F8.7°C 37% 6.0 mph SW9.7 kmh SW 23.0 mph37.0 kmh 29.72 in1006.4 mb 0.00 in0.0 mm 0.00 in0.0 mm 0.00 in0.0 mm
03:20 PM 77.0°F25.0°C 47.8°F8.8°C 37% 10.0 mph SSW16.1 kmh SSW 23.0 mph37.0 kmh 29.72 in1006.4 mb 0.00 in0.0 mm 0.00 in0.0 mm 0.00 in0.0 mm
03:25 PM 77.0°F25.0°C 47.8°F8.8°C 37% 7.0 mph WSW11.3 kmh WSW 22.0 mph35.4 kmh 29.72 in1006.4 mb 0.00 in0.0 mm 0.00 in0.0 mm 0.00 in0.0 mm
03:30 PM 77.4°F25.2°C 48.1°F8.9°C 37% 17.0 mph SSW27.4 kmh SSW 22.0 mph35.4 kmh 29.72 in1006.4 mb 0.00 in0.0 mm 0.00 in0.0 mm 0.00 in0.0 mm
03:35 PM 77.7°F25.4°C 47.6°F8.7°C 36% 12.0 mph WSW19.3 kmh WSW 27.0 mph43.5 kmh 29.72 in1006.4 mb 0.00 in0.0 mm 0.00 in0.0 mm 0.00 in0.0 mm
03:40 PM 77.9°F25.5°C 47.8°F8.8°C 36% 5.0 mph SW8.0 kmh SW 27.0 mph43.5 kmh 29.72 in1006.4 mb 0.00 in0.0 mm 0.00 in0.0 mm 0.00 in0.0 mm
03:45 PM 77.8°F25.4°C 47.7°F8.7°C 36% 10.0 mph SW16.1 kmh SW 27.0 mph43.5 kmh 29.72 in1006.4 mb 0.00 in0.0 mm 0.00 in0.0 mm 0.00 in0.0 mm
03:50 PM 77.9°F25.5°C 47.8°F8.8°C 36% 9.0 mph WSW14.5 kmh WSW 27.0 mph43.5 kmh 29.71 in1006.1 mb 0.00 in0.0 mm 0.00 in0.0 mm 0.00 in0.0 mm
03:55 PM 78.5°F25.8°C 48.3°F9.1°C 36% 6.0 mph WSW9.7 kmh WSW 23.0 mph37.0 kmh 29.72 in1006.4 mb 0.00 in0.0 mm 0.00 in0.0 mm 0.00 in0.0 mm
04:00 PM 78.6°F25.9°C 47.6°F8.7°C 35% 8.0 mph SW12.9 kmh SW 23.0 mph37.0 kmh 29.71 in1006.1 mb 0.00 in0.0 mm 0.00 in0.0 mm 0.00 in0.0 mm
04:05 PM 78.6°F25.9°C 48.4°F9.1°C 36% 11.0 mph S17.7 kmh S 21.0 mph33.8 kmh 29.72 in1006.4 mb 0.00 in0.0 mm 0.00 in0.0 mm 0.00 in0.0 mm
04:10 PM 78.3°F25.7°C 48.1°F8.9°C 36% 4.0 mph SW6.4 kmh SW 25.0 mph40.2 kmh 29.72 in1006.4 mb 0.00 in0.0 mm 0.00 in0.0 mm 0.00 in0.0 mm
04:15 PM 78.5°F25.8°C 48.3°F9.1°C 36% 4.0 mph SW6.4 kmh SW 25.0 mph40.2 kmh 29.72 in1006.4 mb 0.00 in0.0 mm 0.00 in0.0 mm 0.00 in0.0 mm
04:20 PM 78.5°F25.8°C 47.5°F8.6°C 35% 19.0 mph S30.6 kmh S 25.0 mph40.2 kmh 29.72 in1006.4 mb 0.00 in0.0 mm 0.00 in0.0 mm 0.00 in0.0 mm
04:25 PM 78.2°F25.7°C 48.0°F8.9°C 36% 5.0 mph SW8.0 kmh SW 25.0 mph40.2 kmh 29.72 in1006.4 mb 0.00 in0.0 mm 0.00 in0.0 mm 0.00 in0.0 mm
04:30 PM 78.3°F25.7°C 48.9°F9.4°C 37% 17.0 mph SSE27.4 kmh SSE 27.0 mph43.5 kmh 29.73 in1006.8 mb 0.00 in0.0 mm 0.00 in0.0 mm 0.00 in0.0 mm
04:35 PM 78.2°F25.7°C 48.8°F9.3°C 37% 10.0 mph W16.1 kmh W 27.0 mph43.5 kmh 29.72 in1006.4 mb 0.00 in0.0 mm 0.00 in0.0 mm 0.00 in0.0 mm
04:40 PM 78.3°F25.7°C 48.1°F8.9°C 36% 6.0 mph SW9.7 kmh SW 27.0 mph43.5 kmh 29.72 in1006.4 mb 0.00 in0.0 mm 0.00 in0.0 mm 0.00 in0.0 mm
04:45 PM 78.6°F25.9°C 48.4°F9.1°C 36% 11.0 mph SW17.7 kmh SW 27.0 mph43.5 kmh 29.72 in1006.4 mb 0.00 in0.0 mm 0.00 in0.0 mm 0.00 in0.0 mm
04:50 PM 78.8°F26.0°C 49.3°F9.6°C 37% 8.0 mph WSW12.9 kmh WSW 21.0 mph33.8 kmh 29.73 in1006.8 mb 0.00 in0.0 mm 0.00 in0.0 mm 0.00 in0.0 mm
04:55 PM 78.9°F26.1°C 48.6°F9.2°C 36% 5.0 mph WSW8.0 kmh WSW 21.0 mph33.8 kmh 29.73 in1006.8 mb 0.00 in0.0 mm 0.00 in0.0 mm 0.00 in0.0 mm
05:00 PM 72.8°F22.7°C 44.8°F7.1°C 38% 8.0 mph NNW12.9 kmh NNW 14.0 mph22.5 kmh 29.74 in1007.1 mb 0.00 in0.0 mm 0.00 in0.0 mm 0.00 in0.0 mm
05:05 PM 66.4°F19.1°C 43.8°F6.6°C 45% 6.0 mph NW9.7 kmh NW 14.0 mph22.5 kmh 29.74 in1007.1 mb 0.00 in0.0 mm 0.00 in0.0 mm 0.00 in0.0 mm
05:10 PM 63.7°F17.6°C 43.6°F6.4°C 49% 4.0 mph NNE6.4 kmh NNE 10.0 mph16.1 kmh 29.75 in1007.5 mb 0.00 in0.0 mm 0.00 in0.0 mm 0.00 in0.0 mm
05:15 PM 62.6°F17.0°C 43.2°F6.2°C 50% 6.0 mph NNW9.7 kmh NNW 10.0 mph16.1 kmh 29.76 in1007.8 mb 0.00 in0.0 mm 0.00 in0.0 mm 0.00 in0.0 mm
05:20 PM 61.0°F16.1°C 43.3°F6.3°C 53% 4.0 mph 6.4 kmh 7.0 mph11.3 kmh 29.76 in1007.8 mb 0.00 in0.0 mm 0.00 in0.0 mm 0.00 in0.0 mm
05:25 PM 61.4°F16.3°C 44.2°F6.8°C 54% Calm Calm -- 29.76 in1007.8 mb 0.00 in0.0 mm 0.00 in0.0 mm 0.00 in0.0 mm
05:30 PM 61.1°F16.2°C 43.9°F6.6°C 54% Calm Calm 8.0 mph12.9 kmh 29.77 in1008.1 mb 0.00 in0.0 mm 0.00 in0.0 mm 0.00 in0.0 mm
05:35 PM 60.7°F15.9°C 43.0°F6.1°C 53% 4.0 mph NNE6.4 kmh NNE 9.0 mph14.5 kmh 29.77 in1008.1 mb 0.00 in0.0 mm 0.00 in0.0 mm 0.00 in0.0 mm
05:40 PM 60.2°F15.7°C 43.1°F6.2°C 54% 4.0 mph N6.4 kmh N 9.0 mph14.5 kmh 29.77 in1008.1 mb 0.00 in0.0 mm 0.00 in0.0 mm 0.00 in0.0 mm
05:45 PM 58.9°F14.9°C 41.9°F5.5°C 54% 3.0 mph NNE4.8 kmh NNE 9.0 mph14.5 kmh 29.77 in1008.1 mb 0.00 in0.0 mm 0.00 in0.0 mm 0.00 in0.0 mm
05:50 PM 57.9°F14.4°C 42.4°F5.8°C 57% 4.0 mph NE6.4 kmh NE 9.0 mph14.5 kmh 29.77 in1008.1 mb 0.00 in0.0 mm 0.00 in0.0 mm 0.00 in0.0 mm
05:55 PM 56.8°F13.8°C 41.8°F5.4°C 58% 3.0 mph ENE4.8 kmh ENE 7.0 mph11.3 kmh 29.77 in1008.1 mb 0.00 in0.0 mm 0.00 in0.0 mm 0.00 in0.0 mm
06:00 PM 56.1°F13.4°C 41.6°F5.3°C 59% 5.0 mph NE8.0 kmh NE 7.0 mph11.3 kmh 29.77 in1008.1 mb 0.00 in0.0 mm 0.00 in0.0 mm 0.00 in0.0 mm
06:05 PM 55.8°F13.2°C 42.3°F5.7°C 61% 4.0 mph ENE6.4 kmh ENE 7.0 mph11.3 kmh 29.77 in1008.1 mb 0.00 in0.0 mm 0.00 in0.0 mm 0.00 in0.0 mm
06:10 PM 55.8°F13.2°C 42.3°F5.7°C 61% 3.0 mph ENE4.8 kmh ENE 7.0 mph11.3 kmh 29.77 in1008.1 mb 0.00 in0.0 mm 0.00 in0.0 mm 0.00 in0.0 mm
06:15 PM 55.7°F13.2°C 42.2°F5.7°C 61% 8.0 mph NE12.9 kmh NE 8.0 mph12.9 kmh 29.77 in1008.1 mb 0.00 in0.0 mm 0.00 in0.0 mm 0.00 in0.0 mm
06:20 PM 55.4°F13.0°C 41.9°F5.5°C 61% 2.0 mph N3.2 kmh N 8.0 mph12.9 kmh 29.79 in1008.8 mb 0.00 in0.0 mm 0.00 in0.0 mm 0.00 in0.0 mm
06:25 PM 55.3°F12.9°C 41.8°F5.4°C 61% 3.0 mph NE4.8 kmh NE 8.0 mph12.9 kmh 29.78 in1008.5 mb 0.00 in0.0 mm 0.00 in0.0 mm 0.00 in0.0 mm
06:30 PM 55.0°F12.8°C 41.5°F5.3°C 61% 3.0 mph NE4.8 kmh NE 8.0 mph12.9 kmh 29.78 in1008.5 mb 0.00 in0.0 mm 0.00 in0.0 mm 0.00 in0.0 mm
06:35 PM 54.9°F12.7°C 41.8°F5.4°C 62% Calm Calm 7.0 mph11.3 kmh 29.77 in1008.1 mb 0.00 in0.0 mm 0.00 in0.0 mm 0.00 in0.0 mm
06:40 PM 54.9°F12.7°C 42.3°F5.7°C 63% 3.0 mph ENE4.8 kmh ENE 8.0 mph12.9 kmh 29.77 in1008.1 mb 0.00 in0.0 mm 0.00 in0.0 mm 0.00 in0.0 mm
06:45 PM 54.9°F12.7°C 41.8°F5.4°C 62% 2.0 mph ENE3.2 kmh ENE 8.0 mph12.9 kmh 29.77 in1008.1 mb 0.00 in0.0 mm 0.00 in0.0 mm 0.00 in0.0 mm
06:50 PM 54.9°F12.7°C 41.8°F5.4°C 62% 3.0 mph ENE4.8 kmh ENE 8.0 mph12.9 kmh 29.77 in1008.1 mb 0.00 in0.0 mm 0.00 in0.0 mm 0.00 in0.0 mm
06:55 PM 54.9°F12.7°C 41.8°F5.4°C 62% 3.0 mph ENE4.8 kmh ENE 8.0 mph12.9 kmh 29.77 in1008.1 mb 0.00 in0.0 mm 0.00 in0.0 mm 0.00 in0.0 mm
07:00 PM 54.8°F12.7°C 41.7°F5.4°C 62% 1.0 mph ENE1.6 kmh ENE 4.0 mph6.4 kmh 29.78 in1008.5 mb 0.00 in0.0 mm 0.00 in0.0 mm 0.00 in0.0 mm
07:05 PM 54.7°F12.6°C 41.7°F5.4°C 62% 1.0 mph ENE1.6 kmh ENE 4.0 mph6.4 kmh 29.78 in1008.5 mb 0.00 in0.0 mm 0.00 in0.0 mm 0.00 in0.0 mm
07:10 PM 54.7°F12.6°C 41.7°F5.4°C 62% Calm Calm 4.0 mph6.4 kmh 29.78 in1008.5 mb 0.00 in0.0 mm 0.00 in0.0 mm 0.00 in0.0 mm
07:15 PM 54.6°F12.6°C 42.0°F5.6°C 63% 2.0 mph E3.2 kmh E 4.0 mph6.4 kmh 29.78 in1008.5 mb 0.00 in0.0 mm 0.00 in0.0 mm 0.00 in0.0 mm
07:20 PM 54.5°F12.5°C 41.9°F5.5°C 63% 3.0 mph E4.8 kmh E 5.0 mph8.0 kmh 29.78 in1008.5 mb 0.00 in0.0 mm 0.00 in0.0 mm 0.00 in0.0 mm
07:25 PM 54.4°F12.4°C 41.8°F5.4°C 63% 1.0 mph E1.6 kmh E 5.0 mph8.0 kmh 29.78 in1008.5 mb 0.00 in0.0 mm 0.00 in0.0 mm 0.00 in0.0 mm
07:30 PM 54.3°F12.4°C 41.7°F5.4°C 63% Calm Calm 2.0 mph3.2 kmh 29.79 in1008.8 mb 0.00 in0.0 mm 0.00 in0.0 mm 0.00 in0.0 mm
07:35 PM 54.3°F12.4°C 41.7°F5.4°C 63% Calm Calm -- 29.78 in1008.5 mb 0.00 in0.0 mm 0.00 in0.0 mm 0.00 in0.0 mm
07:40 PM 54.2°F12.3°C 42.0°F5.6°C 64% Calm Calm -- 29.79 in1008.8 mb 0.00 in0.0 mm 0.00 in0.0 mm 0.00 in0.0 mm
07:45 PM 54.2°F12.3°C 42.0°F5.6°C 64% Calm Calm -- 29.79 in1008.8 mb 0.00 in0.0 mm 0.00 in0.0 mm 0.00 in0.0 mm
07:50 PM 54.1°F12.3°C 41.9°F5.5°C 64% Calm Calm -- 29.79 in1008.8 mb 0.00 in0.0 mm 0.00 in0.0 mm 0.00 in0.0 mm
07:55 PM 54.1°F12.3°C 41.5°F5.3°C 63% Calm Calm 13.0 mph20.9 kmh 29.80 in1009.1 mb 0.00 in0.0 mm 0.00 in0.0 mm 0.00 in0.0 mm
08:00 PM 53.8°F12.1°C 41.2°F5.1°C 63% 4.0 mph ENE6.4 kmh ENE 6.0 mph9.7 kmh 29.80 in1009.1 mb 0.00 in0.0 mm 0.00 in0.0 mm 0.00 in0.0 mm
08:05 PM 53.1°F11.7°C 40.6°F4.8°C 63% 1.0 mph NE1.6 kmh NE 6.0 mph9.7 kmh 29.80 in1009.1 mb 0.00 in0.0 mm 0.00 in0.0 mm 0.00 in0.0 mm
08:10 PM 52.6°F11.4°C 40.1°F4.5°C 63% 3.0 mph NE4.8 kmh NE 7.0 mph11.3 kmh 29.80 in1009.1 mb 0.00 in0.0 mm 0.00 in0.0 mm 0.00 in0.0 mm
08:15 PM 52.1°F11.2°C 40.0°F4.4°C 64% 5.0 mph NE8.0 kmh NE 7.0 mph11.3 kmh 29.81 in1009.5 mb 0.00 in0.0 mm 0.00 in0.0 mm 0.00 in0.0 mm
08:20 PM 51.4°F10.8°C 39.4°F4.1°C 64% 5.0 mph NE8.0 kmh NE 13.0 mph20.9 kmh 29.80 in1009.1 mb 0.00 in0.0 mm 0.00 in0.0 mm 0.00 in0.0 mm
08:25 PM 50.5°F10.3°C 38.9°F3.8°C 65% 4.0 mph NE6.4 kmh NE 13.0 mph20.9 kmh 29.81 in1009.5 mb 0.00 in0.0 mm 0.00 in0.0 mm 0.00 in0.0 mm
08:30 PM 49.8°F9.9°C 38.7°F3.7°C 66% 4.0 mph ENE6.4 kmh ENE 9.0 mph14.5 kmh 29.82 in1009.8 mb 0.00 in0.0 mm 0.00 in0.0 mm 0.00 in0.0 mm
08:35 PM 49.0°F9.4°C 38.3°F3.5°C 67% 3.0 mph NE4.8 kmh NE 10.0 mph16.1 kmh 29.81 in1009.5 mb 0.00 in0.0 mm 0.00 in0.0 mm 0.00 in0.0 mm
08:40 PM 48.2°F9.0°C 38.0°F3.3°C 68% 4.0 mph NE6.4 kmh NE 10.0 mph16.1 kmh 29.81 in1009.5 mb 0.00 in0.0 mm 0.00 in0.0 mm 0.00 in0.0 mm
08:45 PM 47.9°F8.8°C 38.0°F3.3°C 69% 4.0 mph NE6.4 kmh NE 10.0 mph16.1 kmh 29.82 in1009.8 mb 0.00 in0.0 mm 0.00 in0.0 mm 0.00 in0.0 mm
08:50 PM 47.4°F8.6°C 37.9°F3.3°C 70% Calm Calm 10.0 mph16.1 kmh 29.82 in1009.8 mb 0.00 in0.0 mm 0.00 in0.0 mm 0.00 in0.0 mm
08:55 PM 47.2°F8.4°C 37.8°F3.2°C 70% 4.0 mph NE6.4 kmh NE 5.0 mph8.0 kmh 29.83 in1010.2 mb 0.00 in0.0 mm 0.00 in0.0 mm 0.00 in0.0 mm
09:00 PM 46.9°F8.3°C 37.8°F3.2°C 71% 3.0 mph ENE4.8 kmh ENE 7.0 mph11.3 kmh 29.83 in1010.2 mb 0.00 in0.0 mm 0.00 in0.0 mm 0.00 in0.0 mm
09:05 PM 46.6°F8.1°C 37.9°F3.3°C 72% 4.0 mph N6.4 kmh N 7.0 mph11.3 kmh 29.83 in1010.2 mb 0.00 in0.0 mm 0.00 in0.0 mm 0.00 in0.0 mm
09:10 PM 46.4°F8.0°C 38.1°F3.4°C 73% 3.0 mph ENE4.8 kmh ENE 9.0 mph14.5 kmh 29.83 in1010.2 mb 0.00 in0.0 mm 0.00 in0.0 mm 0.00 in0.0 mm
09:15 PM 46.2°F7.9°C 38.3°F3.5°C 74% 2.0 mph NE3.2 kmh NE 9.0 mph14.5 kmh 29.84 in1010.5 mb 0.00 in0.0 mm 0.00 in0.0 mm 0.00 in0.0 mm
09:20 PM 46.0°F7.8°C 38.4°F3.6°C 75% 7.0 mph ENE11.3 kmh ENE 9.0 mph14.5 kmh 29.84 in1010.5 mb 0.00 in0.0 mm 0.00 in0.0 mm 0.00 in0.0 mm
09:25 PM 45.8°F7.7°C 38.6°F3.7°C 76% 4.0 mph NE6.4 kmh NE 9.0 mph14.5 kmh 29.83 in1010.2 mb 0.00 in0.0 mm 0.00 in0.0 mm 0.00 in0.0 mm
09:30 PM 45.6°F7.6°C 38.4°F3.6°C 76% 5.0 mph NE8.0 kmh NE 9.0 mph14.5 kmh 29.84 in1010.5 mb 0.00 in0.0 mm 0.00 in0.0 mm 0.00 in0.0 mm
09:35 PM 45.4°F7.4°C 38.5°F3.6°C 77% 4.0 mph ENE6.4 kmh ENE 9.0 mph14.5 kmh 29.84 in1010.5 mb 0.00 in0.0 mm 0.00 in0.0 mm 0.00 in0.0 mm
09:40 PM 45.4°F7.4°C 38.9°F3.8°C 78% 3.0 mph ENE4.8 kmh ENE 9.0 mph14.5 kmh 29.84 in1010.5 mb 0.00 in0.0 mm 0.00 in0.0 mm 0.00 in0.0 mm
09:45 PM 45.3°F7.4°C 38.8°F3.8°C 78% 2.0 mph NE3.2 kmh NE 7.0 mph11.3 kmh 29.84 in1010.5 mb 0.00 in0.0 mm 0.00 in0.0 mm 0.00 in0.0 mm
09:50 PM 45.2°F7.3°C 38.7°F3.7°C 78% 2.0 mph ENE3.2 kmh ENE 7.0 mph11.3 kmh 29.84 in1010.5 mb 0.00 in0.0 mm 0.00 in0.0 mm 0.00 in0.0 mm
09:55 PM 45.2°F7.3°C 39.0°F3.9°C 79% 1.0 mph ENE1.6 kmh ENE 5.0 mph8.0 kmh 29.84 in1010.5 mb 0.00 in0.0 mm 0.00 in0.0 mm 0.00 in0.0 mm
10:00 PM 45.1°F7.3°C 38.9°F3.8°C 79% 1.0 mph E1.6 kmh E 5.0 mph8.0 kmh 29.84 in1010.5 mb 0.00 in0.0 mm 0.00 in0.0 mm 0.00 in0.0 mm
10:05 PM 45.1°F7.3°C 38.9°F3.8°C 79% Calm Calm 5.0 mph8.0 kmh 29.84 in1010.5 mb 0.00 in0.0 mm 0.00 in0.0 mm 0.00 in0.0 mm
10:10 PM 45.1°F7.3°C 38.9°F3.8°C 79% 3.0 mph ESE4.8 kmh ESE 5.0 mph8.0 kmh 29.84 in1010.5 mb 0.00 in0.0 mm 0.00 in0.0 mm 0.00 in0.0 mm
10:15 PM 45.1°F7.3°C 38.9°F3.8°C 79% Calm Calm 5.0 mph8.0 kmh 29.83 in1010.2 mb 0.00 in0.0 mm 0.00 in0.0 mm 0.00 in0.0 mm
10:20 PM 45.1°F7.3°C 39.2°F4.0°C 80% Calm Calm 5.0 mph8.0 kmh 29.84 in1010.5 mb 0.00 in0.0 mm 0.00 in0.0 mm 0.00 in0.0 mm
10:25 PM 45.1°F7.3°C 39.2°F4.0°C 80% Calm Calm -- 29.83 in1010.2 mb 0.00 in0.0 mm 0.00 in0.0 mm 0.00 in0.0 mm
10:30 PM 45.1°F7.3°C 38.9°F3.8°C 79% Calm Calm 2.0 mph3.2 kmh 29.83 in1010.2 mb 0.00 in0.0 mm 0.00 in0.0 mm 0.00 in0.0 mm
10:35 PM 45.1°F7.3°C 39.2°F4.0°C 80% Calm Calm -- 29.84 in1010.5 mb 0.00 in0.0 mm 0.00 in0.0 mm 0.00 in0.0 mm
10:40 PM 45.2°F7.3°C 39.3°F4.1°C 80% Calm Calm -- 29.84 in1010.5 mb 0.00 in0.0 mm 0.00 in0.0 mm 0.00 in0.0 mm
10:45 PM 45.2°F7.3°C 39.3°F4.1°C 80% Calm Calm -- 29.84 in1010.5 mb 0.00 in0.0 mm 0.00 in0.0 mm 0.00 in0.0 mm
10:50 PM 45.2°F7.3°C 39.3°F4.1°C 80% Calm Calm -- 29.83 in1010.2 mb 0.00 in0.0 mm 0.00 in0.0 mm 0.00 in0.0 mm
10:55 PM 45.2°F7.3°C 39.3°F4.1°C 80% Calm Calm -- 29.84 in1010.5 mb 0.00 in0.0 mm 0.00 in0.0 mm 0.00 in0.0 mm
11:00 PM 45.2°F7.3°C 39.3°F4.1°C 80% Calm Calm -- 29.83 in1010.2 mb 0.00 in0.0 mm 0.00 in0.0 mm 0.00 in0.0 mm
11:05 PM 45.2°F7.3°C 39.3°F4.1°C 80% Calm Calm -- 29.83 in1010.2 mb 0.00 in0.0 mm 0.00 in0.0 mm 0.00 in0.0 mm
11:10 PM 45.2°F7.3°C 39.3°F4.1°C 80% Calm Calm -- 29.84 in1010.5 mb 0.00 in0.0 mm 0.00 in0.0 mm 0.00 in0.0 mm
11:15 PM 45.2°F7.3°C 39.3°F4.1°C 80% Calm Calm -- 29.83 in1010.2 mb 0.00 in0.0 mm 0.00 in0.0 mm 0.00 in0.0 mm
11:20 PM 45.2°F7.3°C 39.3°F4.1°C 80% Calm Calm -- 29.84 in1010.5 mb 0.00 in0.0 mm 0.00 in0.0 mm 0.00 in0.0 mm
11:25 PM 45.2°F7.3°C 39.3°F4.1°C 80% Calm Calm -- 29.84 in1010.5 mb 0.00 in0.0 mm 0.00 in0.0 mm 0.00 in0.0 mm
11:30 PM 45.1°F7.3°C 39.2°F4.0°C 80% Calm Calm -- 29.83 in1010.2 mb 0.00 in0.0 mm 0.00 in0.0 mm 0.00 in0.0 mm
11:35 PM 45.0°F7.2°C 39.1°F3.9°C 80% Calm Calm -- 29.83 in1010.2 mb 0.00 in0.0 mm 0.00 in0.0 mm 0.00 in0.0 mm
11:40 PM 44.9°F7.2°C 39.0°F3.9°C 80% Calm Calm -- 29.84 in1010.5 mb 0.00 in0.0 mm 0.00 in0.0 mm 0.00 in0.0 mm
11:45 PM 44.8°F7.1°C 38.9°F3.8°C 80% Calm Calm -- 29.83 in1010.2 mb 0.00 in0.0 mm 0.00 in0.0 mm 0.00 in0.0 mm
11:50 PM 44.7°F7.1°C 38.9°F3.8°C 80% Calm Calm -- 29.84 in1010.5 mb 0.00 in0.0 mm 0.00 in0.0 mm 0.00 in0.0 mm
11:55 PM 44.6°F7.0°C 38.8°F3.8°C 80% Calm Calm -- 29.84 in1010.5 mb 0.00 in0.0 mm 0.00 in0.0 mm 0.00 in0.0 mm